sensor_id;sensor_type;location;lat;lon;timestamp;P1;durP1;ratioP1;P2;durP2;ratioP2
1577;SDS011;57623;53.608;10.004;2022-07-21T00:01:16;16.33;;;14.93;;
1577;SDS011;57623;53.608;10.004;2022-07-21T00:04:06;16.03;;;14.43;;
1577;SDS011;57623;53.608;10.004;2022-07-21T00:06:54;15.20;;;14.00;;
1577;SDS011;57623;53.608;10.004;2022-07-21T00:09:43;15.70;;;14.30;;
1577;SDS011;57623;53.608;10.004;2022-07-21T00:12:31;15.73;;;14.30;;
1577;SDS011;57623;53.608;10.004;2022-07-21T00:15:20;16.23;;;14.83;;
1577;SDS011;57623;53.608;10.004;2022-07-21T00:18:12;16.27;;;14.77;;
1577;SDS011;57623;53.608;10.004;2022-07-21T00:21:01;17.30;;;15.67;;
1577;SDS011;57623;53.608;10.004;2022-07-21T00:23:50;16.40;;;15.00;;
1577;SDS011;57623;53.608;10.004;2022-07-21T00:26:38;16.77;;;15.07;;
1577;SDS011;57623;53.608;10.004;2022-07-21T00:29:26;16.30;;;14.70;;
1577;SDS011;57623;53.608;10.004;2022-07-21T00:32:15;15.40;;;13.93;;
1577;SDS011;57623;53.608;10.004;2022-07-21T00:35:09;16.57;;;15.03;;
1577;SDS011;57623;53.608;10.004;2022-07-21T00:37:58;15.23;;;13.93;;
1577;SDS011;57623;53.608;10.004;2022-07-21T00:40:47;16.57;;;14.93;;
1577;SDS011;57623;53.608;10.004;2022-07-21T00:43:38;16.47;;;14.97;;
1577;SDS011;57623;53.608;10.004;2022-07-21T00:46:26;17.13;;;15.47;;
1577;SDS011;57623;53.608;10.004;2022-07-21T00:49:15;18.00;;;16.47;;
1577;SDS011;57623;53.608;10.004;2022-07-21T00:52:05;17.43;;;15.63;;
1577;SDS011;57623;53.608;10.004;2022-07-21T00:54:53;16.80;;;15.40;;
1577;SDS011;57623;53.608;10.004;2022-07-21T00:57:42;17.27;;;15.70;;
1577;SDS011;57623;53.608;10.004;2022-07-21T01:00:33;17.73;;;15.83;;
1577;SDS011;57623;53.608;10.004;2022-07-21T01:03:24;17.27;;;15.53;;
1577;SDS011;57623;53.608;10.004;2022-07-21T01:06:13;16.77;;;15.27;;
1577;SDS011;57623;53.608;10.004;2022-07-21T01:09:03;17.20;;;15.60;;
1577;SDS011;57623;53.608;10.004;2022-07-21T01:11:57;17.03;;;15.47;;
1577;SDS011;57623;53.608;10.004;2022-07-21T01:14:45;16.73;;;15.10;;
1577;SDS011;57623;53.608;10.004;2022-07-21T01:17:35;16.57;;;15.10;;
1577;SDS011;57623;53.608;10.004;2022-07-21T01:20:23;18.27;;;16.70;;
1577;SDS011;57623;53.608;10.004;2022-07-21T01:23:14;17.50;;;15.90;;
1577;SDS011;57623;53.608;10.004;2022-07-21T01:26:03;18.60;;;16.70;;
1577;SDS011;57623;53.608;10.004;2022-07-21T01:28:52;17.20;;;15.60;;
1577;SDS011;57623;53.608;10.004;2022-07-21T01:31:42;17.00;;;15.40;;
1577;SDS011;57623;53.608;10.004;2022-07-21T01:34:31;17.27;;;15.53;;
1577;SDS011;57623;53.608;10.004;2022-07-21T01:37:20;16.77;;;15.17;;
1577;SDS011;57623;53.608;10.004;2022-07-21T01:40:11;17.03;;;15.33;;
1577;SDS011;57623;53.608;10.004;2022-07-21T01:43:18;18.13;;;15.90;;
1577;SDS011;57623;53.608;10.004;2022-07-21T01:46:08;16.30;;;15.00;;
1577;SDS011;57623;53.608;10.004;2022-07-21T01:48:59;18.63;;;16.63;;
1577;SDS011;57623;53.608;10.004;2022-07-21T01:51:47;17.27;;;15.57;;
1577;SDS011;57623;53.608;10.004;2022-07-21T01:54:36;16.13;;;14.70;;
1577;SDS011;57623;53.608;10.004;2022-07-21T01:57:26;17.43;;;15.60;;
1577;SDS011;57623;53.608;10.004;2022-07-21T02:00:15;16.60;;;15.00;;
1577;SDS011;57623;53.608;10.004;2022-07-21T02:03:04;18.17;;;16.47;;
1577;SDS011;57623;53.608;10.004;2022-07-21T02:05:59;15.80;;;14.30;;
1577;SDS011;57623;53.608;10.004;2022-07-21T02:08:48;16.73;;;14.37;;
1577;SDS011;57623;53.608;10.004;2022-07-21T02:11:38;16.47;;;14.73;;
1577;SDS011;57623;53.608;10.004;2022-07-21T02:14:28;16.47;;;14.93;;
1577;SDS011;57623;53.608;10.004;2022-07-21T02:17:16;15.60;;;14.17;;
1577;SDS011;57623;53.608;10.004;2022-07-21T02:20:05;15.40;;;13.90;;
1577;SDS011;57623;53.608;10.004;2022-07-21T02:22:54;15.27;;;13.70;;
1577;SDS011;57623;53.608;10.004;2022-07-21T02:25:43;16.37;;;14.77;;
1577;SDS011;57623;53.608;10.004;2022-07-21T02:28:31;16.57;;;15.07;;
1577;SDS011;57623;53.608;10.004;2022-07-21T02:31:21;16.23;;;14.57;;
1577;SDS011;57623;53.608;10.004;2022-07-21T02:34:11;19.20;;;14.60;;
1577;SDS011;57623;53.608;10.004;2022-07-21T02:37:00;16.20;;;14.60;;
1577;SDS011;57623;53.608;10.004;2022-07-21T02:39:48;16.77;;;14.90;;
1577;SDS011;57623;53.608;10.004;2022-07-21T02:42:37;16.87;;;14.60;;
1577;SDS011;57623;53.608;10.004;2022-07-21T02:45:26;18.00;;;14.13;;
1577;SDS011;57623;53.608;10.004;2022-07-21T02:48:16;17.97;;;15.10;;
1577;SDS011;57623;53.608;10.004;2022-07-21T02:51:04;19.23;;;16.20;;
1577;SDS011;57623;53.608;10.004;2022-07-21T02:53:54;19.47;;;16.70;;
1577;SDS011;57623;53.608;10.004;2022-07-21T02:56:43;19.13;;;17.13;;
1577;SDS011;57623;53.608;10.004;2022-07-21T02:59:31;19.33;;;17.63;;
1577;SDS011;57623;53.608;10.004;2022-07-21T03:02:20;18.83;;;16.87;;
1577;SDS011;57623;53.608;10.004;2022-07-21T03:05:09;19.03;;;17.13;;
1577;SDS011;57623;53.608;10.004;2022-07-21T03:07:58;19.90;;;17.80;;
1577;SDS011;57623;53.608;10.004;2022-07-21T03:10:47;20.50;;;18.70;;
1577;SDS011;57623;53.608;10.004;2022-07-21T03:13:36;23.77;;;19.23;;
1577;SDS011;57623;53.608;10.004;2022-07-21T03:16:24;17.97;;;16.27;;
1577;SDS011;57623;53.608;10.004;2022-07-21T03:19:13;19.50;;;16.93;;
1577;SDS011;57623;53.608;10.004;2022-07-21T03:22:02;18.60;;;16.43;;
1577;SDS011;57623;53.608;10.004;2022-07-21T03:24:51;20.80;;;17.17;;
1577;SDS011;57623;53.608;10.004;2022-07-21T03:27:39;17.40;;;15.60;;
1577;SDS011;57623;53.608;10.004;2022-07-21T03:30:28;18.00;;;15.67;;
1577;SDS011;57623;53.608;10.004;2022-07-21T03:33:16;18.40;;;14.93;;
1577;SDS011;57623;53.608;10.004;2022-07-21T03:36:05;17.00;;;14.80;;
1577;SDS011;57623;53.608;10.004;2022-07-21T03:38:56;17.13;;;14.00;;
1577;SDS011;57623;53.608;10.004;2022-07-21T03:41:44;14.80;;;13.30;;
1577;SDS011;57623;53.608;10.004;2022-07-21T03:44:35;13.80;;;12.50;;
1577;SDS011;57623;53.608;10.004;2022-07-21T03:47:23;15.33;;;13.73;;
1577;SDS011;57623;53.608;10.004;2022-07-21T03:50:12;14.13;;;12.47;;
1577;SDS011;57623;53.608;10.004;2022-07-21T03:53:02;13.97;;;12.23;;
1577;SDS011;57623;53.608;10.004;2022-07-21T03:55:51;11.27;;;10.17;;
1577;SDS011;57623;53.608;10.004;2022-07-21T03:58:40;13.53;;;10.70;;
1577;SDS011;57623;53.608;10.004;2022-07-21T04:01:28;10.90;;;9.50;;
1577;SDS011;57623;53.608;10.004;2022-07-21T04:04:17;10.77;;;9.57;;
1577;SDS011;57623;53.608;10.004;2022-07-21T04:07:06;10.53;;;8.40;;
1577;SDS011;57623;53.608;10.004;2022-07-21T04:09:54;13.00;;;10.13;;
1577;SDS011;57623;53.608;10.004;2022-07-21T04:12:44;12.00;;;8.90;;
1577;SDS011;57623;53.608;10.004;2022-07-21T04:15:33;11.73;;;8.50;;
1577;SDS011;57623;53.608;10.004;2022-07-21T04:18:24;10.00;;;9.07;;
1577;SDS011;57623;53.608;10.004;2022-07-21T04:21:12;14.00;;;10.17;;
1577;SDS011;57623;53.608;10.004;2022-07-21T04:24:01;11.70;;;8.73;;
1577;SDS011;57623;53.608;10.004;2022-07-21T04:26:49;10.13;;;8.73;;
1577;SDS011;57623;53.608;10.004;2022-07-21T04:29:39;14.23;;;9.03;;
1577;SDS011;57623;53.608;10.004;2022-07-21T04:32:27;9.50;;;8.53;;
1577;SDS011;57623;53.608;10.004;2022-07-21T04:35:16;12.70;;;8.70;;
1577;SDS011;57623;53.608;10.004;2022-07-21T04:38:05;10.87;;;8.30;;
1577;SDS011;57623;53.608;10.004;2022-07-21T04:40:55;10.90;;;8.40;;
1577;SDS011;57623;53.608;10.004;2022-07-21T04:43:43;12.30;;;8.07;;
1577;SDS011;57623;53.608;10.004;2022-07-21T04:46:33;9.00;;;8.10;;
1577;SDS011;57623;53.608;10.004;2022-07-21T04:49:22;11.40;;;8.60;;
1577;SDS011;57623;53.608;10.004;2022-07-21T04:52:10;9.90;;;7.90;;
1577;SDS011;57623;53.608;10.004;2022-07-21T04:54:58;8.63;;;7.77;;
1577;SDS011;57623;53.608;10.004;2022-07-21T04:57:48;10.53;;;7.57;;
1577;SDS011;57623;53.608;10.004;2022-07-21T05:00:37;15.70;;;7.63;;
1577;SDS011;57623;53.608;10.004;2022-07-21T05:03:27;8.43;;;7.50;;
1577;SDS011;57623;53.608;10.004;2022-07-21T05:06:15;7.90;;;7.10;;
1577;SDS011;57623;53.608;10.004;2022-07-21T05:09:12;8.53;;;7.63;;
1577;SDS011;57623;53.608;10.004;2022-07-21T05:12:00;10.10;;;7.17;;
1577;SDS011;57623;53.608;10.004;2022-07-21T05:14:49;8.77;;;7.50;;
1577;SDS011;57623;53.608;10.004;2022-07-21T05:17:40;9.43;;;8.07;;
1577;SDS011;57623;53.608;10.004;2022-07-21T05:20:30;13.27;;;8.50;;
1577;SDS011;57623;53.608;10.004;2022-07-21T05:23:19;9.40;;;8.13;;
1577;SDS011;57623;53.608;10.004;2022-07-21T05:26:07;8.93;;;7.73;;
1577;SDS011;57623;53.608;10.004;2022-07-21T05:28:55;11.20;;;7.50;;
1577;SDS011;57623;53.608;10.004;2022-07-21T05:31:43;11.00;;;7.63;;
1577;SDS011;57623;53.608;10.004;2022-07-21T05:34:33;9.90;;;6.93;;
1577;SDS011;57623;53.608;10.004;2022-07-21T05:37:23;8.30;;;7.13;;
1577;SDS011;57623;53.608;10.004;2022-07-21T05:40:15;9.20;;;7.00;;
1577;SDS011;57623;53.608;10.004;2022-07-21T05:43:03;12.27;;;6.73;;
1577;SDS011;57623;53.608;10.004;2022-07-21T05:45:52;10.10;;;7.13;;
1577;SDS011;57623;53.608;10.004;2022-07-21T05:48:45;10.47;;;7.53;;
1577;SDS011;57623;53.608;10.004;2022-07-21T05:51:36;8.10;;;7.30;;
1577;SDS011;57623;53.608;10.004;2022-07-21T05:54:26;8.63;;;6.40;;
1577;SDS011;57623;53.608;10.004;2022-07-21T05:57:14;9.30;;;6.90;;
1577;SDS011;57623;53.608;10.004;2022-07-21T06:00:04;8.00;;;6.73;;
1577;SDS011;57623;53.608;10.004;2022-07-21T06:02:54;10.10;;;6.23;;
1577;SDS011;57623;53.608;10.004;2022-07-21T06:05:43;8.90;;;6.93;;
1577;SDS011;57623;53.608;10.004;2022-07-21T06:08:31;7.00;;;6.30;;
1577;SDS011;57623;53.608;10.004;2022-07-21T06:11:21;7.80;;;5.90;;
1577;SDS011;57623;53.608;10.004;2022-07-21T06:14:10;9.00;;;6.57;;
1577;SDS011;57623;53.608;10.004;2022-07-21T06:16:59;9.23;;;7.40;;
1577;SDS011;57623;53.608;10.004;2022-07-21T06:19:47;8.90;;;6.40;;
1577;SDS011;57623;53.608;10.004;2022-07-21T06:22:36;9.30;;;6.67;;
1577;SDS011;57623;53.608;10.004;2022-07-21T06:25:25;7.33;;;6.60;;
1577;SDS011;57623;53.608;10.004;2022-07-21T06:28:15;10.00;;;6.80;;
1577;SDS011;57623;53.608;10.004;2022-07-21T06:31:03;12.00;;;7.07;;
1577;SDS011;57623;53.608;10.004;2022-07-21T06:33:51;8.27;;;6.57;;
1577;SDS011;57623;53.608;10.004;2022-07-21T06:36:40;8.57;;;7.67;;
1577;SDS011;57623;53.608;10.004;2022-07-21T06:39:29;10.90;;;7.93;;
1577;SDS011;57623;53.608;10.004;2022-07-21T06:42:18;11.70;;;7.77;;
1577;SDS011;57623;53.608;10.004;2022-07-21T06:45:08;11.10;;;8.20;;
1577;SDS011;57623;53.608;10.004;2022-07-21T06:48:00;10.57;;;8.57;;
1577;SDS011;57623;53.608;10.004;2022-07-21T06:50:50;8.97;;;8.27;;
1577;SDS011;57623;53.608;10.004;2022-07-21T06:53:39;8.80;;;7.90;;
1577;SDS011;57623;53.608;10.004;2022-07-21T06:56:29;8.77;;;7.90;;
1577;SDS011;57623;53.608;10.004;2022-07-21T06:59:18;11.83;;;8.27;;
1577;SDS011;57623;53.608;10.004;2022-07-21T07:02:09;10.57;;;8.57;;
1577;SDS011;57623;53.608;10.004;2022-07-21T07:04:58;14.10;;;8.43;;
1577;SDS011;57623;53.608;10.004;2022-07-21T07:07:55;9.80;;;8.43;;
1577;SDS011;57623;53.608;10.004;2022-07-21T07:10:44;9.30;;;8.30;;
1577;SDS011;57623;53.608;10.004;2022-07-21T07:13:33;11.23;;;8.80;;
1577;SDS011;57623;53.608;10.004;2022-07-21T07:16:42;12.23;;;9.30;;
1577;SDS011;57623;53.608;10.004;2022-07-21T07:19:32;11.00;;;9.00;;
1577;SDS011;57623;53.608;10.004;2022-07-21T07:22:24;13.40;;;9.53;;
1577;SDS011;57623;53.608;10.004;2022-07-21T07:25:13;9.80;;;8.80;;
1577;SDS011;57623;53.608;10.004;2022-07-21T07:28:07;11.20;;;8.60;;
1577;SDS011;57623;53.608;10.004;2022-07-21T07:30:55;12.37;;;9.60;;
1577;SDS011;57623;53.608;10.004;2022-07-21T07:33:44;11.17;;;8.80;;
1577;SDS011;57623;53.608;10.004;2022-07-21T07:36:33;10.13;;;9.13;;
1577;SDS011;57623;53.608;10.004;2022-07-21T07:39:29;12.53;;;10.60;;
1577;SDS011;57623;53.608;10.004;2022-07-21T07:42:17;11.23;;;9.97;;
1577;SDS011;57623;53.608;10.004;2022-07-21T07:45:07;12.43;;;9.67;;
1577;SDS011;57623;53.608;10.004;2022-07-21T07:47:57;11.27;;;10.17;;
1577;SDS011;57623;53.608;10.004;2022-07-21T07:50:45;12.00;;;10.73;;
1577;SDS011;57623;53.608;10.004;2022-07-21T07:53:35;11.53;;;10.20;;
1577;SDS011;57623;53.608;10.004;2022-07-21T07:56:23;11.63;;;10.53;;
1577;SDS011;57623;53.608;10.004;2022-07-21T07:59:11;13.13;;;11.50;;
1577;SDS011;57623;53.608;10.004;2022-07-21T08:02:00;12.70;;;10.63;;
1577;SDS011;57623;53.608;10.004;2022-07-21T08:04:48;14.83;;;12.40;;
1577;SDS011;57623;53.608;10.004;2022-07-21T08:07:38;15.00;;;12.50;;
1577;SDS011;57623;53.608;10.004;2022-07-21T08:10:28;15.00;;;12.53;;
1577;SDS011;57623;53.608;10.004;2022-07-21T08:13:32;16.43;;;12.57;;
1577;SDS011;57623;53.608;10.004;2022-07-21T08:16:21;16.20;;;14.60;;
1577;SDS011;57623;53.608;10.004;2022-07-21T08:19:09;15.23;;;13.63;;
1577;SDS011;57623;53.608;10.004;2022-07-21T08:21:58;16.23;;;14.53;;
1577;SDS011;57623;53.608;10.004;2022-07-21T08:24:59;17.93;;;14.30;;
1577;SDS011;57623;53.608;10.004;2022-07-21T08:27:49;17.97;;;15.20;;
1577;SDS011;57623;53.608;10.004;2022-07-21T08:30:37;18.30;;;16.47;;
1577;SDS011;57623;53.608;10.004;2022-07-21T08:33:26;18.57;;;16.67;;
1577;SDS011;57623;53.608;10.004;2022-07-21T08:36:14;18.57;;;16.67;;
1577;SDS011;57623;53.608;10.004;2022-07-21T08:39:03;19.20;;;17.50;;
1577;SDS011;57623;53.608;10.004;2022-07-21T08:41:51;19.60;;;17.23;;
1577;SDS011;57623;53.608;10.004;2022-07-21T08:44:41;17.33;;;15.73;;
1577;SDS011;57623;53.608;10.004;2022-07-21T08:47:30;19.53;;;17.47;;
1577;SDS011;57623;53.608;10.004;2022-07-21T08:50:19;19.67;;;17.60;;
1577;SDS011;57623;53.608;10.004;2022-07-21T08:53:09;19.70;;;17.70;;
1577;SDS011;57623;53.608;10.004;2022-07-21T08:55:57;19.83;;;18.03;;
1577;SDS011;57623;53.608;10.004;2022-07-21T08:58:46;19.60;;;17.60;;
1577;SDS011;57623;53.608;10.004;2022-07-21T09:01:36;20.07;;;18.07;;
1577;SDS011;57623;53.608;10.004;2022-07-21T09:04:25;21.07;;;18.07;;
1577;SDS011;57623;53.608;10.004;2022-07-21T09:07:24;21.40;;;19.40;;
1577;SDS011;57623;53.608;10.004;2022-07-21T09:10:12;24.83;;;20.43;;
1577;SDS011;57623;53.608;10.004;2022-07-21T09:13:09;22.10;;;19.80;;
1577;SDS011;57623;53.608;10.004;2022-07-21T09:15:57;22.23;;;18.80;;
1577;SDS011;57623;53.608;10.004;2022-07-21T09:18:50;19.80;;;17.80;;
1577;SDS011;57623;53.608;10.004;2022-07-21T09:21:40;21.10;;;19.00;;
1577;SDS011;57623;53.608;10.004;2022-07-21T09:24:29;20.30;;;18.37;;
1577;SDS011;57623;53.608;10.004;2022-07-21T09:27:21;19.97;;;18.17;;
1577;SDS011;57623;53.608;10.004;2022-07-21T09:30:09;18.40;;;16.70;;
1577;SDS011;57623;53.608;10.004;2022-07-21T09:33:01;19.70;;;17.77;;
1577;SDS011;57623;53.608;10.004;2022-07-21T09:36:10;19.87;;;18.07;;
1577;SDS011;57623;53.608;10.004;2022-07-21T09:39:01;18.40;;;16.50;;
1577;SDS011;57623;53.608;10.004;2022-07-21T09:41:51;18.07;;;16.33;;
1577;SDS011;57623;53.608;10.004;2022-07-21T09:44:41;18.47;;;16.67;;
1577;SDS011;57623;53.608;10.004;2022-07-21T09:47:30;18.10;;;16.50;;
1577;SDS011;57623;53.608;10.004;2022-07-21T09:50:19;17.13;;;15.47;;
1577;SDS011;57623;53.608;10.004;2022-07-21T09:53:14;17.77;;;15.90;;
1577;SDS011;57623;53.608;10.004;2022-07-21T09:56:02;17.00;;;14.70;;
1577;SDS011;57623;53.608;10.004;2022-07-21T09:58:51;18.10;;;16.37;;
1577;SDS011;57623;53.608;10.004;2022-07-21T10:01:42;17.83;;;16.23;;
1577;SDS011;57623;53.608;10.004;2022-07-21T10:04:31;18.23;;;16.40;;
1577;SDS011;57623;53.608;10.004;2022-07-21T10:07:43;16.13;;;14.80;;
1577;SDS011;57623;53.608;10.004;2022-07-21T10:10:34;15.50;;;14.20;;
1577;SDS011;57623;53.608;10.004;2022-07-21T10:13:43;16.27;;;14.87;;
1577;SDS011;57623;53.608;10.004;2022-07-21T10:16:32;17.07;;;15.27;;
1577;SDS011;57623;53.608;10.004;2022-07-21T10:19:21;16.03;;;14.63;;
1577;SDS011;57623;53.608;10.004;2022-07-21T10:22:18;15.57;;;13.73;;
1577;SDS011;57623;53.608;10.004;2022-07-21T10:25:15;17.77;;;15.80;;
1577;SDS011;57623;53.608;10.004;2022-07-21T10:28:16;15.90;;;14.50;;
1577;SDS011;57623;53.608;10.004;2022-07-21T10:31:14;15.50;;;14.10;;
1577;SDS011;57623;53.608;10.004;2022-07-21T10:34:05;16.20;;;14.80;;
1577;SDS011;57623;53.608;10.004;2022-07-21T10:36:53;15.77;;;14.20;;
1577;SDS011;57623;53.608;10.004;2022-07-21T10:39:42;15.07;;;13.77;;
1577;SDS011;57623;53.608;10.004;2022-07-21T10:42:30;15.60;;;14.30;;
1577;SDS011;57623;53.608;10.004;2022-07-21T10:45:28;14.97;;;13.57;;
1577;SDS011;57623;53.608;10.004;2022-07-21T10:51:36;14.47;;;13.27;;
1577;SDS011;57623;53.608;10.004;2022-07-21T10:54:26;13.83;;;12.53;;
1577;SDS011;57623;53.608;10.004;2022-07-21T10:57:24;13.13;;;12.13;;
1577;SDS011;57623;53.608;10.004;2022-07-21T11:00:17;13.57;;;12.37;;
1577;SDS011;57623;53.608;10.004;2022-07-21T11:03:16;11.07;;;10.17;;
1577;SDS011;57623;53.608;10.004;2022-07-21T11:06:17;10.87;;;10.07;;
1577;SDS011;57623;53.608;10.004;2022-07-21T11:09:15;10.67;;;9.73;;
1577;SDS011;57623;53.608;10.004;2022-07-21T11:12:06;11.17;;;10.27;;
1577;SDS011;57623;53.608;10.004;2022-07-21T11:14:56;12.00;;;11.00;;
1577;SDS011;57623;53.608;10.004;2022-07-21T11:17:47;11.00;;;10.20;;
1577;SDS011;57623;53.608;10.004;2022-07-21T11:20:38;10.20;;;9.20;;
1577;SDS011;57623;53.608;10.004;2022-07-21T11:23:33;10.23;;;9.43;;
1577;SDS011;57623;53.608;10.004;2022-07-21T11:26:23;9.60;;;8.80;;
1577;SDS011;57623;53.608;10.004;2022-07-21T11:29:13;8.97;;;8.23;;
1577;SDS011;57623;53.608;10.004;2022-07-21T11:32:04;9.40;;;8.80;;
1577;SDS011;57623;53.608;10.004;2022-07-21T11:34:54;9.10;;;8.40;;
1577;SDS011;57623;53.608;10.004;2022-07-21T11:37:45;8.57;;;7.90;;
1577;SDS011;57623;53.608;10.004;2022-07-21T11:40:34;9.40;;;8.63;;
1577;SDS011;57623;53.608;10.004;2022-07-21T11:43:38;8.83;;;8.23;;
1577;SDS011;57623;53.608;10.004;2022-07-21T11:46:27;8.93;;;8.33;;
1577;SDS011;57623;53.608;10.004;2022-07-21T11:49:16;8.23;;;7.70;;
1577;SDS011;57623;53.608;10.004;2022-07-21T11:52:06;8.70;;;8.00;;
1577;SDS011;57623;53.608;10.004;2022-07-21T11:54:57;8.50;;;7.80;;
1577;SDS011;57623;53.608;10.004;2022-07-21T11:57:49;8.70;;;7.97;;
1577;SDS011;57623;53.608;10.004;2022-07-21T12:00:38;8.50;;;7.90;;
1577;SDS011;57623;53.608;10.004;2022-07-21T12:03:26;8.40;;;7.90;;
1577;SDS011;57623;53.608;10.004;2022-07-21T12:06:14;8.20;;;7.43;;
1577;SDS011;57623;53.608;10.004;2022-07-21T12:09:03;7.73;;;7.23;;
1577;SDS011;57623;53.608;10.004;2022-07-21T12:11:53;7.30;;;6.80;;
1577;SDS011;57623;53.608;10.004;2022-07-21T12:14:45;8.67;;;7.87;;
1577;SDS011;57623;53.608;10.004;2022-07-21T12:17:36;8.40;;;7.80;;
1577;SDS011;57623;53.608;10.004;2022-07-21T12:20:26;8.50;;;7.70;;
1577;SDS011;57623;53.608;10.004;2022-07-21T12:23:19;7.60;;;7.00;;
1577;SDS011;57623;53.608;10.004;2022-07-21T12:26:19;7.67;;;7.17;;
1577;SDS011;57623;53.608;10.004;2022-07-21T12:29:10;7.10;;;6.50;;
1577;SDS011;57623;53.608;10.004;2022-07-21T12:32:12;6.20;;;5.60;;
1577;SDS011;57623;53.608;10.004;2022-07-21T12:35:02;7.10;;;6.50;;
1577;SDS011;57623;53.608;10.004;2022-07-21T12:38:08;6.97;;;6.37;;
1577;SDS011;57623;53.608;10.004;2022-07-21T12:40:58;7.60;;;6.90;;
1577;SDS011;57623;53.608;10.004;2022-07-21T12:44:06;7.10;;;6.70;;
1577;SDS011;57623;53.608;10.004;2022-07-21T12:46:57;6.90;;;6.40;;
1577;SDS011;57623;53.608;10.004;2022-07-21T12:50:01;6.73;;;6.23;;
1577;SDS011;57623;53.608;10.004;2022-07-21T12:53:07;6.40;;;6.00;;
1577;SDS011;57623;53.608;10.004;2022-07-21T12:55:56;6.10;;;5.50;;
1577;SDS011;57623;53.608;10.004;2022-07-21T12:58:45;6.57;;;6.07;;
1577;SDS011;57623;53.608;10.004;2022-07-21T13:01:34;7.23;;;6.73;;
1577;SDS011;57623;53.608;10.004;2022-07-21T13:04:23;7.10;;;6.63;;
1577;SDS011;57623;53.608;10.004;2022-07-21T13:07:13;7.07;;;6.57;;
1577;SDS011;57623;53.608;10.004;2022-07-21T13:10:02;7.70;;;7.00;;
1577;SDS011;57623;53.608;10.004;2022-07-21T13:12:55;7.57;;;7.07;;
1577;SDS011;57623;53.608;10.004;2022-07-21T13:15:33;7.77;;;7.27;;
1577;SDS011;57623;53.608;10.004;2022-07-21T13:18:22;7.23;;;6.70;;
1577;SDS011;57623;53.608;10.004;2022-07-21T13:21:11;6.30;;;5.80;;
1577;SDS011;57623;53.608;10.004;2022-07-21T13:24:00;6.30;;;5.90;;
1577;SDS011;57623;53.608;10.004;2022-07-21T13:26:48;5.77;;;5.37;;
1577;SDS011;57623;53.608;10.004;2022-07-21T13:29:37;5.70;;;5.30;;
1577;SDS011;57623;53.608;10.004;2022-07-21T13:32:26;6.23;;;5.73;;
1577;SDS011;57623;53.608;10.004;2022-07-21T13:35:15;6.77;;;6.27;;
1577;SDS011;57623;53.608;10.004;2022-07-21T13:38:14;5.90;;;5.50;;
1577;SDS011;57623;53.608;10.004;2022-07-21T13:41:03;7.00;;;6.30;;
1577;SDS011;57623;53.608;10.004;2022-07-21T13:44:11;6.70;;;6.30;;
1577;SDS011;57623;53.608;10.004;2022-07-21T13:47:00;6.10;;;5.70;;
1577;SDS011;57623;53.608;10.004;2022-07-21T13:49:49;7.60;;;7.00;;
1577;SDS011;57623;53.608;10.004;2022-07-21T13:52:37;6.57;;;6.07;;
1577;SDS011;57623;53.608;10.004;2022-07-21T13:55:28;6.73;;;6.23;;
1577;SDS011;57623;53.608;10.004;2022-07-21T13:58:17;5.83;;;5.50;;
1577;SDS011;57623;53.608;10.004;2022-07-21T14:01:05;5.63;;;5.30;;
1577;SDS011;57623;53.608;10.004;2022-07-21T14:03:54;5.27;;;4.97;;
1577;SDS011;57623;53.608;10.004;2022-07-21T14:06:43;4.43;;;4.13;;
1577;SDS011;57623;53.608;10.004;2022-07-21T14:09:35;3.23;;;3.03;;
1577;SDS011;57623;53.608;10.004;2022-07-21T14:12:25;3.90;;;3.60;;
1577;SDS011;57623;53.608;10.004;2022-07-21T14:15:13;3.80;;;3.60;;
1577;SDS011;57623;53.608;10.004;2022-07-21T14:18:02;3.40;;;3.20;;
1577;SDS011;57623;53.608;10.004;2022-07-21T14:20:51;3.70;;;3.50;;
1577;SDS011;57623;53.608;10.004;2022-07-21T14:23:39;3.77;;;3.53;;
1577;SDS011;57623;53.608;10.004;2022-07-21T14:26:30;3.67;;;3.47;;
1577;SDS011;57623;53.608;10.004;2022-07-21T14:29:20;4.00;;;3.80;;
1577;SDS011;57623;53.608;10.004;2022-07-21T14:32:08;3.50;;;3.30;;
1577;SDS011;57623;53.608;10.004;2022-07-21T14:34:57;3.60;;;3.40;;
1577;SDS011;57623;53.608;10.004;2022-07-21T14:37:46;3.97;;;3.77;;
1577;SDS011;57623;53.608;10.004;2022-07-21T14:40:35;4.37;;;4.07;;
1577;SDS011;57623;53.608;10.004;2022-07-21T14:43:24;4.30;;;4.00;;
1577;SDS011;57623;53.608;10.004;2022-07-21T14:46:14;4.70;;;4.40;;
1577;SDS011;57623;53.608;10.004;2022-07-21T14:49:02;4.00;;;3.80;;
1577;SDS011;57623;53.608;10.004;2022-07-21T14:51:51;4.13;;;3.93;;
1577;SDS011;57623;53.608;10.004;2022-07-21T14:54:39;4.20;;;3.90;;
1577;SDS011;57623;53.608;10.004;2022-07-21T14:57:27;4.83;;;4.53;;
1577;SDS011;57623;53.608;10.004;2022-07-21T15:00:16;4.73;;;4.20;;
1577;SDS011;57623;53.608;10.004;2022-07-21T15:03:06;4.37;;;4.17;;
1577;SDS011;57623;53.608;10.004;2022-07-21T15:05:55;4.47;;;4.17;;
1577;SDS011;57623;53.608;10.004;2022-07-21T15:08:43;4.43;;;4.13;;
1577;SDS011;57623;53.608;10.004;2022-07-21T15:11:32;4.43;;;4.13;;
1577;SDS011;57623;53.608;10.004;2022-07-21T15:14:20;4.33;;;4.03;;
1577;SDS011;57623;53.608;10.004;2022-07-21T15:17:09;4.67;;;4.30;;
1577;SDS011;57623;53.608;10.004;2022-07-21T15:19:58;5.00;;;4.70;;
1577;SDS011;57623;53.608;10.004;2022-07-21T15:22:47;4.63;;;4.33;;
1577;SDS011;57623;53.608;10.004;2022-07-21T15:25:35;5.30;;;5.00;;
1577;SDS011;57623;53.608;10.004;2022-07-21T15:28:23;5.60;;;5.20;;
1577;SDS011;57623;53.608;10.004;2022-07-21T15:31:12;6.13;;;5.63;;
1577;SDS011;57623;53.608;10.004;2022-07-21T15:34:00;5.80;;;5.47;;
1577;SDS011;57623;53.608;10.004;2022-07-21T15:36:50;7.57;;;6.90;;
1577;SDS011;57623;53.608;10.004;2022-07-21T15:39:40;7.80;;;7.20;;
1577;SDS011;57623;53.608;10.004;2022-07-21T15:42:29;7.37;;;6.87;;
1577;SDS011;57623;53.608;10.004;2022-07-21T15:45:18;6.63;;;6.23;;
1577;SDS011;57623;53.608;10.004;2022-07-21T15:48:06;8.50;;;7.90;;
1577;SDS011;57623;53.608;10.004;2022-07-21T15:50:58;7.83;;;7.23;;
1577;SDS011;57623;53.608;10.004;2022-07-21T15:53:47;7.30;;;6.90;;
1577;SDS011;57623;53.608;10.004;2022-07-21T15:56:36;7.33;;;6.73;;
1577;SDS011;57623;53.608;10.004;2022-07-21T15:59:24;8.17;;;7.57;;
1577;SDS011;57623;53.608;10.004;2022-07-21T16:02:23;8.23;;;7.63;;
1577;SDS011;57623;53.608;10.004;2022-07-21T16:05:13;10.27;;;9.40;;
1577;SDS011;57623;53.608;10.004;2022-07-21T16:08:02;11.37;;;10.47;;
1577;SDS011;57623;53.608;10.004;2022-07-21T16:10:53;11.20;;;10.30;;
1577;SDS011;57623;53.608;10.004;2022-07-21T16:13:41;11.90;;;10.90;;
1577;SDS011;57623;53.608;10.004;2022-07-21T16:16:30;11.40;;;10.40;;
1577;SDS011;57623;53.608;10.004;2022-07-21T16:19:18;11.20;;;10.30;;
1577;SDS011;57623;53.608;10.004;2022-07-21T16:22:07;8.23;;;7.63;;
1577;SDS011;57623;53.608;10.004;2022-07-21T16:24:56;7.20;;;6.63;;
1577;SDS011;57623;53.608;10.004;2022-07-21T16:27:47;6.10;;;5.70;;
1577;SDS011;57623;53.608;10.004;2022-07-21T16:30:38;5.70;;;5.30;;
1577;SDS011;57623;53.608;10.004;2022-07-21T16:33:26;5.90;;;5.50;;
1577;SDS011;57623;53.608;10.004;2022-07-21T16:36:16;5.47;;;5.07;;
1577;SDS011;57623;53.608;10.004;2022-07-21T16:39:04;5.47;;;5.10;;
1577;SDS011;57623;53.608;10.004;2022-07-21T16:41:53;4.97;;;4.60;;
1577;SDS011;57623;53.608;10.004;2022-07-21T16:44:47;5.73;;;5.23;;
1577;SDS011;57623;53.608;10.004;2022-07-21T16:47:35;4.83;;;4.53;;
1577;SDS011;57623;53.608;10.004;2022-07-21T16:50:23;5.33;;;4.83;;
1577;SDS011;57623;53.608;10.004;2022-07-21T16:53:12;5.27;;;4.90;;